sensor_id;sensor_type;location;lat;lon;timestamp;P1;durP1;ratioP1;P2;durP2;ratioP2
19113;SDS011;9689;51.052;13.772;2023-06-19T00:00:56;11.50;;;8.63;;
19113;SDS011;9689;51.052;13.772;2023-06-19T00:05:58;12.77;;;9.10;;
19113;SDS011;9689;51.052;13.772;2023-06-19T00:10:58;11.48;;;8.45;;
19113;SDS011;9689;51.052;13.772;2023-06-19T00:15:59;12.18;;;8.43;;
19113;SDS011;9689;51.052;13.772;2023-06-19T00:21:02;11.50;;;8.45;;
19113;SDS011;9689;51.052;13.772;2023-06-19T00:26:05;12.65;;;8.35;;
19113;SDS011;9689;51.052;13.772;2023-06-19T00:31:07;12.07;;;8.68;;
19113;SDS011;9689;51.052;13.772;2023-06-19T00:36:12;13.85;;;9.13;;
19113;SDS011;9689;51.052;13.772;2023-06-19T00:41:14;13.18;;;9.55;;
19113;SDS011;9689;51.052;13.772;2023-06-19T00:46:16;12.35;;;8.65;;
19113;SDS011;9689;51.052;13.772;2023-06-19T00:51:18;14.32;;;8.75;;
19113;SDS011;9689;51.052;13.772;2023-06-19T00:56:18;12.50;;;8.45;;
19113;SDS011;9689;51.052;13.772;2023-06-19T01:01:19;12.98;;;9.30;;
19113;SDS011;9689;51.052;13.772;2023-06-19T01:06:25;12.32;;;8.60;;
19113;SDS011;9689;51.052;13.772;2023-06-19T01:11:30;12.48;;;9.23;;
19113;SDS011;9689;51.052;13.772;2023-06-19T01:16:35;12.93;;;8.70;;
19113;SDS011;9689;51.052;13.772;2023-06-19T01:21:39;10.75;;;8.10;;
19113;SDS011;9689;51.052;13.772;2023-06-19T01:26:41;15.48;;;8.65;;
19113;SDS011;9689;51.052;13.772;2023-06-19T01:31:47;12.50;;;8.63;;
19113;SDS011;9689;51.052;13.772;2023-06-19T01:36:55;12.30;;;8.38;;
19113;SDS011;9689;51.052;13.772;2023-06-19T01:41:58;13.90;;;8.98;;
19113;SDS011;9689;51.052;13.772;2023-06-19T01:46:59;11.77;;;9.00;;
19113;SDS011;9689;51.052;13.772;2023-06-19T01:52:08;13.98;;;8.75;;
19113;SDS011;9689;51.052;13.772;2023-06-19T01:57:11;15.77;;;9.77;;
19113;SDS011;9689;51.052;13.772;2023-06-19T02:02:12;15.05;;;9.70;;
19113;SDS011;9689;51.052;13.772;2023-06-19T02:07:13;14.07;;;8.70;;
19113;SDS011;9689;51.052;13.772;2023-06-19T02:12:15;17.50;;;9.35;;
19113;SDS011;9689;51.052;13.772;2023-06-19T02:17:16;11.93;;;8.93;;
19113;SDS011;9689;51.052;13.772;2023-06-19T02:22:17;14.52;;;8.88;;
19113;SDS011;9689;51.052;13.772;2023-06-19T02:27:19;12.27;;;9.05;;
19113;SDS011;9689;51.052;13.772;2023-06-19T02:32:20;12.82;;;9.18;;
19113;SDS011;9689;51.052;13.772;2023-06-19T02:37:21;14.35;;;9.18;;
19113;SDS011;9689;51.052;13.772;2023-06-19T02:42:23;12.15;;;8.88;;
19113;SDS011;9689;51.052;13.772;2023-06-19T02:47:24;13.43;;;8.98;;
19113;SDS011;9689;51.052;13.772;2023-06-19T02:52:24;12.80;;;9.60;;
19113;SDS011;9689;51.052;13.772;2023-06-19T02:57:27;16.17;;;9.35;;
19113;SDS011;9689;51.052;13.772;2023-06-19T03:02:27;18.05;;;9.68;;
19113;SDS011;9689;51.052;13.772;2023-06-19T03:07:28;13.07;;;9.18;;
19113;SDS011;9689;51.052;13.772;2023-06-19T03:12:30;11.13;;;9.23;;
19113;SDS011;9689;51.052;13.772;2023-06-19T03:17:31;11.43;;;8.82;;
19113;SDS011;9689;51.052;13.772;2023-06-19T03:22:32;12.95;;;8.82;;
19113;SDS011;9689;51.052;13.772;2023-06-19T03:27:34;11.77;;;9.00;;
19113;SDS011;9689;51.052;13.772;2023-06-19T03:32:35;12.65;;;8.05;;
19113;SDS011;9689;51.052;13.772;2023-06-19T03:37:37;14.07;;;8.93;;
19113;SDS011;9689;51.052;13.772;2023-06-19T03:42:39;12.90;;;8.55;;
19113;SDS011;9689;51.052;13.772;2023-06-19T03:47:41;12.20;;;9.18;;
19113;SDS011;9689;51.052;13.772;2023-06-19T03:52:42;12.85;;;8.15;;
19113;SDS011;9689;51.052;13.772;2023-06-19T03:57:44;16.52;;;9.30;;
19113;SDS011;9689;51.052;13.772;2023-06-19T04:02:45;12.52;;;8.40;;
19113;SDS011;9689;51.052;13.772;2023-06-19T04:07:47;10.98;;;8.30;;
19113;SDS011;9689;51.052;13.772;2023-06-19T04:12:49;13.00;;;8.48;;
19113;SDS011;9689;51.052;13.772;2023-06-19T04:17:50;13.25;;;8.65;;
19113;SDS011;9689;51.052;13.772;2023-06-19T04:22:51;12.10;;;8.07;;
19113;SDS011;9689;51.052;13.772;2023-06-19T04:27:53;10.82;;;7.70;;
19113;SDS011;9689;51.052;13.772;2023-06-19T04:32:54;15.05;;;7.75;;
19113;SDS011;9689;51.052;13.772;2023-06-19T04:37:55;16.40;;;8.60;;
19113;SDS011;9689;51.052;13.772;2023-06-19T04:42:57;10.85;;;8.55;;
19113;SDS011;9689;51.052;13.772;2023-06-19T04:47:57;14.52;;;8.57;;
19113;SDS011;9689;51.052;13.772;2023-06-19T04:53:02;12.43;;;7.60;;
19113;SDS011;9689;51.052;13.772;2023-06-19T04:58:04;11.38;;;7.85;;
19113;SDS011;9689;51.052;13.772;2023-06-19T05:03:05;10.02;;;7.75;;
19113;SDS011;9689;51.052;13.772;2023-06-19T05:08:06;17.85;;;8.52;;
19113;SDS011;9689;51.052;13.772;2023-06-19T05:13:08;15.60;;;8.30;;
19113;SDS011;9689;51.052;13.772;2023-06-19T05:18:08;13.15;;;8.30;;
19113;SDS011;9689;51.052;13.772;2023-06-19T05:23:09;10.90;;;7.47;;
19113;SDS011;9689;51.052;13.772;2023-06-19T05:28:11;10.18;;;7.75;;
19113;SDS011;9689;51.052;13.772;2023-06-19T05:33:12;13.07;;;7.95;;
19113;SDS011;9689;51.052;13.772;2023-06-19T05:38:15;14.68;;;8.07;;
19113;SDS011;9689;51.052;13.772;2023-06-19T05:43:17;14.23;;;8.05;;
19113;SDS011;9689;51.052;13.772;2023-06-19T05:48:18;10.98;;;7.32;;
19113;SDS011;9689;51.052;13.772;2023-06-19T05:53:19;9.50;;;7.22;;
19113;SDS011;9689;51.052;13.772;2023-06-19T05:58:21;9.52;;;7.20;;
19113;SDS011;9689;51.052;13.772;2023-06-19T06:03:24;13.23;;;7.65;;
19113;SDS011;9689;51.052;13.772;2023-06-19T06:08:25;13.18;;;7.35;;
19113;SDS011;9689;51.052;13.772;2023-06-19T06:13:27;11.13;;;7.70;;
19113;SDS011;9689;51.052;13.772;2023-06-19T06:18:28;14.02;;;7.53;;
19113;SDS011;9689;51.052;13.772;2023-06-19T06:23:28;11.75;;;7.63;;
19113;SDS011;9689;51.052;13.772;2023-06-19T06:28:31;11.77;;;7.88;;
19113;SDS011;9689;51.052;13.772;2023-06-19T06:33:31;10.23;;;7.00;;
19113;SDS011;9689;51.052;13.772;2023-06-19T06:38:32;10.93;;;7.55;;
19113;SDS011;9689;51.052;13.772;2023-06-19T06:43:34;16.23;;;7.82;;
19113;SDS011;9689;51.052;13.772;2023-06-19T06:48:35;12.23;;;7.05;;
19113;SDS011;9689;51.052;13.772;2023-06-19T06:53:36;10.45;;;6.70;;
19113;SDS011;9689;51.052;13.772;2023-06-19T06:58:38;12.68;;;6.43;;
19113;SDS011;9689;51.052;13.772;2023-06-19T07:03:39;13.90;;;7.47;;
19113;SDS011;9689;51.052;13.772;2023-06-19T07:08:40;12.20;;;6.65;;
19113;SDS011;9689;51.052;13.772;2023-06-19T07:13:41;9.18;;;7.05;;
19113;SDS011;9689;51.052;13.772;2023-06-19T07:18:42;7.57;;;5.97;;
19113;SDS011;9689;51.052;13.772;2023-06-19T07:23:43;8.65;;;6.10;;
19113;SDS011;9689;51.052;13.772;2023-06-19T07:28:48;11.50;;;6.55;;
19113;SDS011;9689;51.052;13.772;2023-06-19T07:33:48;9.45;;;6.50;;
19113;SDS011;9689;51.052;13.772;2023-06-19T07:38:49;15.07;;;7.47;;
19113;SDS011;9689;51.052;13.772;2023-06-19T07:43:51;12.73;;;6.15;;
19113;SDS011;9689;51.052;13.772;2023-06-19T07:48:52;9.48;;;6.40;;
19113;SDS011;9689;51.052;13.772;2023-06-19T07:53:52;9.32;;;5.63;;
19113;SDS011;9689;51.052;13.772;2023-06-19T07:58:54;6.85;;;5.55;;
19113;SDS011;9689;51.052;13.772;2023-06-19T08:03:55;9.50;;;6.05;;
19113;SDS011;9689;51.052;13.772;2023-06-19T08:08:56;12.48;;;7.45;;
19113;SDS011;9689;51.052;13.772;2023-06-19T08:13:58;11.75;;;6.95;;
19113;SDS011;9689;51.052;13.772;2023-06-19T08:18:58;15.77;;;6.65;;
19113;SDS011;9689;51.052;13.772;2023-06-19T08:23:59;9.73;;;6.60;;
19113;SDS011;9689;51.052;13.772;2023-06-19T08:29:01;7.90;;;5.80;;
19113;SDS011;9689;51.052;13.772;2023-06-19T08:34:02;9.60;;;6.10;;
19113;SDS011;9689;51.052;13.772;2023-06-19T08:39:06;8.63;;;5.88;;
19113;SDS011;9689;51.052;13.772;2023-06-19T08:44:09;8.52;;;6.45;;
19113;SDS011;9689;51.052;13.772;2023-06-19T08:49:09;9.32;;;6.35;;
19113;SDS011;9689;51.052;13.772;2023-06-19T08:54:10;9.30;;;6.55;;
19113;SDS011;9689;51.052;13.772;2023-06-19T08:59:17;15.38;;;7.63;;
19113;SDS011;9689;51.052;13.772;2023-06-19T09:04:18;13.70;;;7.10;;
19113;SDS011;9689;51.052;13.772;2023-06-19T09:09:20;11.80;;;6.35;;
19113;SDS011;9689;51.052;13.772;2023-06-19T09:14:27;12.95;;;6.55;;
19113;SDS011;9689;51.052;13.772;2023-06-19T09:19:32;10.02;;;6.90;;
19113;SDS011;9689;51.052;13.772;2023-06-19T09:24:34;9.13;;;6.47;;
19113;SDS011;9689;51.052;13.772;2023-06-19T09:29:37;11.70;;;6.85;;
19113;SDS011;9689;51.052;13.772;2023-06-19T09:34:38;6.97;;;6.03;;
19113;SDS011;9689;51.052;13.772;2023-06-19T09:39:39;14.07;;;7.07;;
19113;SDS011;9689;51.052;13.772;2023-06-19T09:44:45;13.32;;;6.85;;
19113;SDS011;9689;51.052;13.772;2023-06-19T09:49:49;10.18;;;6.88;;
19113;SDS011;9689;51.052;13.772;2023-06-19T09:54:54;9.48;;;7.18;;
19113;SDS011;9689;51.052;13.772;2023-06-19T09:59:58;7.80;;;6.05;;
19113;SDS011;9689;51.052;13.772;2023-06-19T10:05:10;12.23;;;6.72;;
19113;SDS011;9689;51.052;13.772;2023-06-19T10:10:22;15.52;;;7.18;;
19113;SDS011;9689;51.052;13.772;2023-06-19T10:15:26;8.98;;;6.63;;
19113;SDS011;9689;51.052;13.772;2023-06-19T10:20:29;8.88;;;6.85;;
19113;SDS011;9689;51.052;13.772;2023-06-19T10:25:32;10.68;;;6.68;;
19113;SDS011;9689;51.052;13.772;2023-06-19T10:30:35;10.43;;;6.88;;
19113;SDS011;9689;51.052;13.772;2023-06-19T10:35:39;10.95;;;6.90;;
19113;SDS011;9689;51.052;13.772;2023-06-19T10:40:40;13.15;;;6.65;;
19113;SDS011;9689;51.052;13.772;2023-06-19T10:45:45;9.95;;;6.47;;
19113;SDS011;9689;51.052;13.772;2023-06-19T10:50:46;9.55;;;6.95;;
19113;SDS011;9689;51.052;13.772;2023-06-19T10:55:47;10.15;;;6.90;;
19113;SDS011;9689;51.052;13.772;2023-06-19T11:00:49;12.02;;;6.80;;
19113;SDS011;9689;51.052;13.772;2023-06-19T11:05:50;10.10;;;6.93;;
19113;SDS011;9689;51.052;13.772;2023-06-19T11:10:51;11.13;;;7.25;;
19113;SDS011;9689;51.052;13.772;2023-06-19T11:15:53;8.90;;;6.43;;
19113;SDS011;9689;51.052;13.772;2023-06-19T11:20:54;10.68;;;6.88;;
19113;SDS011;9689;51.052;13.772;2023-06-19T11:26:01;9.73;;;6.97;;
19113;SDS011;9689;51.052;13.772;2023-06-19T11:31:04;7.93;;;6.63;;
19113;SDS011;9689;51.052;13.772;2023-06-19T11:36:04;9.32;;;5.97;;
19113;SDS011;9689;51.052;13.772;2023-06-19T11:41:06;9.93;;;6.70;;
19113;SDS011;9689;51.052;13.772;2023-06-19T11:46:09;10.02;;;6.35;;
19113;SDS011;9689;51.052;13.772;2023-06-19T11:51:09;10.93;;;6.65;;
19113;SDS011;9689;51.052;13.772;2023-06-19T11:56:10;9.15;;;6.78;;
19113;SDS011;9689;51.052;13.772;2023-06-19T12:01:12;8.40;;;6.50;;
19113;SDS011;9689;51.052;13.772;2023-06-19T12:06:13;8.30;;;5.97;;
19113;SDS011;9689;51.052;13.772;2023-06-19T12:11:14;9.10;;;6.32;;
19113;SDS011;9689;51.052;13.772;2023-06-19T12:16:16;7.18;;;5.97;;
19113;SDS011;9689;51.052;13.772;2023-06-19T12:21:16;10.10;;;6.72;;
19113;SDS011;9689;51.052;13.772;2023-06-19T12:26:35;7.72;;;6.13;;
19113;SDS011;9689;51.052;13.772;2023-06-19T12:31:38;7.72;;;5.93;;
19113;SDS011;9689;51.052;13.772;2023-06-19T12:36:39;7.80;;;5.15;;
19113;SDS011;9689;51.052;13.772;2023-06-19T12:41:39;10.05;;;5.78;;
19113;SDS011;9689;51.052;13.772;2023-06-19T12:46:41;8.32;;;5.57;;
19113;SDS011;9689;51.052;13.772;2023-06-19T12:51:42;8.05;;;5.57;;
19113;SDS011;9689;51.052;13.772;2023-06-19T12:56:43;6.75;;;5.30;;
19113;SDS011;9689;51.052;13.772;2023-06-19T13:01:45;9.60;;;5.50;;
19113;SDS011;9689;51.052;13.772;2023-06-19T13:06:46;8.23;;;6.25;;
19113;SDS011;9689;51.052;13.772;2023-06-19T13:11:46;8.63;;;5.45;;
19113;SDS011;9689;51.052;13.772;2023-06-19T13:16:50;8.80;;;5.22;;
19113;SDS011;9689;51.052;13.772;2023-06-19T13:21:50;9.88;;;5.68;;
19113;SDS011;9689;51.052;13.772;2023-06-19T13:26:52;13.35;;;7.18;;
19113;SDS011;9689;51.052;13.772;2023-06-19T13:31:54;13.95;;;6.43;;
19113;SDS011;9689;51.052;13.772;2023-06-19T13:36:54;10.10;;;6.53;;
19113;SDS011;9689;51.052;13.772;2023-06-19T13:41:55;10.63;;;6.95;;
19113;SDS011;9689;51.052;13.772;2023-06-19T13:46:57;8.80;;;6.88;;
19113;SDS011;9689;51.052;13.772;2023-06-19T13:51:59;14.35;;;7.20;;
19113;SDS011;9689;51.052;13.772;2023-06-19T13:57:00;8.93;;;6.40;;
19113;SDS011;9689;51.052;13.772;2023-06-19T14:02:02;8.07;;;7.00;;
19113;SDS011;9689;51.052;13.772;2023-06-19T14:07:03;10.15;;;7.32;;
19113;SDS011;9689;51.052;13.772;2023-06-19T14:12:05;11.45;;;7.85;;
19113;SDS011;9689;51.052;13.772;2023-06-19T14:17:07;9.18;;;7.50;;
19113;SDS011;9689;51.052;13.772;2023-06-19T14:22:10;12.18;;;8.45;;
19113;SDS011;9689;51.052;13.772;2023-06-19T14:27:11;11.63;;;7.80;;
19113;SDS011;9689;51.052;13.772;2023-06-19T14:32:14;14.18;;;7.18;;
19113;SDS011;9689;51.052;13.772;2023-06-19T14:37:15;9.88;;;7.65;;
19113;SDS011;9689;51.052;13.772;2023-06-19T14:42:16;13.38;;;8.98;;
19113;SDS011;9689;51.052;13.772;2023-06-19T14:47:18;12.25;;;7.65;;
19113;SDS011;9689;51.052;13.772;2023-06-19T14:52:19;12.63;;;8.13;;
19113;SDS011;9689;51.052;13.772;2023-06-19T14:57:20;12.23;;;7.60;;
19113;SDS011;9689;51.052;13.772;2023-06-19T15:02:22;12.88;;;7.50;;
19113;SDS011;9689;51.052;13.772;2023-06-19T15:07:23;10.30;;;8.32;;
19113;SDS011;9689;51.052;13.772;2023-06-19T15:12:24;11.65;;;8.20;;
19113;SDS011;9689;51.052;13.772;2023-06-19T15:17:26;17.50;;;8.18;;
19113;SDS011;9689;51.052;13.772;2023-06-19T15:22:27;13.35;;;7.57;;
19113;SDS011;9689;51.052;13.772;2023-06-19T15:27:28;12.68;;;7.97;;
19113;SDS011;9689;51.052;13.772;2023-06-19T15:32:29;11.23;;;8.27;;
19113;SDS011;9689;51.052;13.772;2023-06-19T15:37:30;12.60;;;8.30;;
19113;SDS011;9689;51.052;13.772;2023-06-19T15:42:31;13.30;;;8.50;;
19113;SDS011;9689;51.052;13.772;2023-06-19T15:47:33;15.73;;;8.52;;
19113;SDS011;9689;51.052;13.772;2023-06-19T15:52:34;13.70;;;8.15;;
19113;SDS011;9689;51.052;13.772;2023-06-19T15:57:35;12.63;;;7.75;;
19113;SDS011;9689;51.052;13.772;2023-06-19T16:02:37;12.70;;;8.82;;
19113;SDS011;9689;51.052;13.772;2023-06-19T16:07:38;11.85;;;9.00;;
19113;SDS011;9689;51.052;13.772;2023-06-19T16:12:38;15.32;;;9.07;;
19113;SDS011;9689;51.052;13.772;2023-06-19T16:17:41;10.35;;;7.63;;
19113;SDS011;9689;51.052;13.772;2023-06-19T16:22:43;13.23;;;8.32;;
19113;SDS011;9689;51.052;13.772;2023-06-19T16:27:44;14.40;;;8.50;;
19113;SDS011;9689;51.052;13.772;2023-06-19T16:32:46;15.18;;;8.10;;
19113;SDS011;9689;51.052;13.772;2023-06-19T16:37:46;11.70;;;8.23;;
19113;SDS011;9689;51.052;13.772;2023-06-19T16:42:47;14.10;;;8.20;;
19113;SDS011;9689;51.052;13.772;2023-06-19T16:47:49;12.45;;;8.00;;
19113;SDS011;9689;51.052;13.772;2023-06-19T16:52:50;9.07;;;7.43;;
19113;SDS011;9689;51.052;13.772;2023-06-19T16:57:51;8.75;;;7.70;;
19113;SDS011;9689;51.052;13.772;2023-06-19T17:02:53;12.10;;;6.88;;
19113;SDS011;9689;51.052;13.772;2023-06-19T17:07:56;10.77;;;7.78;;
19113;SDS011;9689;51.052;13.772;2023-06-19T17:12:57;9.18;;;7.05;;
19113;SDS011;9689;51.052;13.772;2023-06-19T17:17:59;12.63;;;7.28;;
19113;SDS011;9689;51.052;13.772;2023-06-19T17:23:00;10.80;;;7.18;;
19113;SDS011;9689;51.052;13.772;2023-06-19T17:28:01;8.30;;;6.88;;
19113;SDS011;9689;51.052;13.772;2023-06-19T17:33:03;9.00;;;7.05;;
19113;SDS011;9689;51.052;13.772;2023-06-19T17:38:05;10.13;;;6.60;;
19113;SDS011;9689;51.052;13.772;2023-06-19T17:43:06;12.85;;;7.63;;
19113;SDS011;9689;51.052;13.772;2023-06-19T17:48:08;8.48;;;6.90;;
19113;SDS011;9689;51.052;13.772;2023-06-19T17:53:09;9.65;;;7.63;;
19113;SDS011;9689;51.052;13.772;2023-06-19T17:58:10;9.25;;;6.90;;
19113;SDS011;9689;51.052;13.772;2023-06-19T18:03:12;11.98;;;7.13;;
19113;SDS011;9689;51.052;13.772;2023-06-19T18:08:13;11.63;;;7.65;;
19113;SDS011;9689;51.052;13.772;2023-06-19T18:13:13;12.02;;;8.20;;
19113;SDS011;9689;51.052;13.772;2023-06-19T18:18:16;11.32;;;8.18;;
19113;SDS011;9689;51.052;13.772;2023-06-19T18:23:17;11.90;;;8.80;;
19113;SDS011;9689;51.052;13.772;2023-06-19T18:28:17;14.20;;;9.93;;
19113;SDS011;9689;51.052;13.772;2023-06-19T18:33:20;14.55;;;9.82;;
19113;SDS011;9689;51.052;13.772;2023-06-19T18:38:20;18.85;;;10.43;;
19113;SDS011;9689;51.052;13.772;2023-06-19T18:43:21;13.32;;;9.82;;
19113;SDS011;9689;51.052;13.772;2023-06-19T18:48:25;16.70;;;10.27;;
19113;SDS011;9689;51.052;13.772;2023-06-19T18:53:27;16.20;;;10.48;;
19113;SDS011;9689;51.052;13.772;2023-06-19T18:58:28;22.45;;;12.48;;
19113;SDS011;9689;51.052;13.772;2023-06-19T19:03:30;19.80;;;11.32;;
19113;SDS011;9689;51.052;13.772;2023-06-19T19:08:31;19.02;;;12.30;;
19113;SDS011;9689;51.052;13.772;2023-06-19T19:13:32;20.02;;;11.68;;
19113;SDS011;9689;51.052;13.772;2023-06-19T19:18:34;19.08;;;10.82;;
19113;SDS011;9689;51.052;13.772;2023-06-19T19:23:34;16.52;;;11.88;;
19113;SDS011;9689;51.052;13.772;2023-06-19T19:28:35;20.35;;;12.00;;
19113;SDS011;9689;51.052;13.772;2023-06-19T19:33:37;19.25;;;11.73;;
19113;SDS011;9689;51.052;13.772;2023-06-19T19:38:38;17.90;;;12.45;;
19113;SDS011;9689;51.052;13.772;2023-06-19T19:43:39;19.50;;;12.10;;
19113;SDS011;9689;51.052;13.772;2023-06-19T19:48:41;17.38;;;11.60;;
19113;SDS011;9689;51.052;13.772;2023-06-19T19:53:42;16.58;;;10.38;;
19113;SDS011;9689;51.052;13.772;2023-06-19T19:58:43;16.45;;;11.30;;
19113;SDS011;9689;51.052;13.772;2023-06-19T20:03:45;20.83;;;11.25;;
19113;SDS011;9689;51.052;13.772;2023-06-19T20:08:46;18.70;;;11.77;;
19113;SDS011;9689;51.052;13.772;2023-06-19T20:13:47;17.50;;;11.88;;
19113;SDS011;9689;51.052;13.772;2023-06-19T20:18:50;18.40;;;11.90;;
19113;SDS011;9689;51.052;13.772;2023-06-19T20:23:51;15.88;;;11.07;;
19113;SDS011;9689;51.052;13.772;2023-06-19T20:28:52;17.80;;;11.38;;
19113;SDS011;9689;51.052;13.772;2023-06-19T20:33:54;18.90;;;11.55;;
19113;SDS011;9689;51.052;13.772;2023-06-19T20:38:55;20.58;;;11.75;;
19113;SDS011;9689;51.052;13.772;2023-06-19T20:43:55;21.38;;;11.40;;
19113;SDS011;9689;51.052;13.772;2023-06-19T20:48:57;16.38;;;11.13;;
19113;SDS011;9689;51.052;13.772;2023-06-19T20:53:58;15.18;;;10.90;;
19113;SDS011;9689;51.052;13.772;2023-06-19T20:58:58;14.07;;;11.15;;
19113;SDS011;9689;51.052;13.772;2023-06-19T21:04:01;16.17;;;11.27;;
19113;SDS011;9689;51.052;13.772;2023-06-19T21:09:01;18.20;;;11.20;;
19113;SDS011;9689;51.052;13.772;2023-06-19T21:14:03;17.30;;;11.68;;
19113;SDS011;9689;51.052;13.772;2023-06-19T21:19:05;27.27;;;11.70;;
19113;SDS011;9689;51.052;13.772;2023-06-19T21:24:05;19.00;;;11.20;;
19113;SDS011;9689;51.052;13.772;2023-06-19T21:29:06;18.15;;;11.32;;
19113;SDS011;9689;51.052;13.772;2023-06-19T21:34:08;16.40;;;11.52;;
19113;SDS011;9689;51.052;13.772;2023-06-19T21:39:09;15.50;;;11.43;;
19113;SDS011;9689;51.052;13.772;2023-06-19T21:44:10;17.33;;;11.55;;
19113;SDS011;9689;51.052;13.772;2023-06-19T21:49:12;17.02;;;11.88;;
19113;SDS011;9689;51.052;13.772;2023-06-19T21:54:12;16.10;;;11.60;;
19113;SDS011;9689;51.052;13.772;2023-06-19T21:59:13;17.42;;;11.05;;
19113;SDS011;9689;51.052;13.772;2023-06-19T22:04:15;22.58;;;11.73;;
19113;SDS011;9689;51.052;13.772;2023-06-19T22:09:16;14.05;;;11.25;;
19113;SDS011;9689;51.052;13.772;2023-06-19T22:14:16;17.52;;;12.07;;
19113;SDS011;9689;51.052;13.772;2023-06-19T22:19:18;16.20;;;11.25;;
19113;SDS011;9689;51.052;13.772;2023-06-19T22:24:19;17.92;;;11.73;;
19113;SDS011;9689;51.052;13.772;2023-06-19T22:29:20;17.05;;;12.15;;
19113;SDS011;9689;51.052;13.772;2023-06-19T22:34:22;17.80;;;12.02;;
19113;SDS011;9689;51.052;13.772;2023-06-19T22:39:22;17.63;;;12.35;;
19113;SDS011;9689;51.052;13.772;2023-06-19T22:44:23;18.90;;;12.02;;
19113;SDS011;9689;51.052;13.772;2023-06-19T22:49:25;17.55;;;11.38;;
19113;SDS011;9689;51.052;13.772;2023-06-19T22:54:28;17.13;;;12.35;;
19113;SDS011;9689;51.052;13.772;2023-06-19T22:59:29;19.38;;;12.68;;
19113;SDS011;9689;51.052;13.772;2023-06-19T23:04:31;20.02;;;12.68;;
19113;SDS011;9689;51.052;13.772;2023-06-19T23:09:32;17.45;;;12.60;;
19113;SDS011;9689;51.052;13.772;2023-06-19T23:14:32;17.90;;;12.43;;
19113;SDS011;9689;51.052;13.772;2023-06-19T23:19:34;16.00;;;12.25;;
19113;SDS011;9689;51.052;13.772;2023-06-19T23:24:35;19.35;;;12.85;;
19113;SDS011;9689;51.052;13.772;2023-06-19T23:29:39;17.90;;;12.18;;
19113;SDS011;9689;51.052;13.772;2023-06-19T23:34:41;16.25;;;12.60;;
19113;SDS011;9689;51.052;13.772;2023-06-19T23:39:42;18.40;;;12.57;;
19113;SDS011;9689;51.052;13.772;2023-06-19T23:44:42;20.63;;;12.95;;
19113;SDS011;9689;51.052;13.772;2023-06-19T23:49:44;15.57;;;12.10;;
19113;SDS011;9689;51.052;13.772;2023-06-19T23:54:47;18.10;;;12.57;;
19113;SDS011;9689;51.052;13.772;2023-06-19T23:59:47;17.38;;;12.40;;
